AHO weather

Alghero-Fertilia Airport
Alghero, Sardinia, Italy

Public forecast

Using degrees Celsius for public forecast. Weather courtesy of forecast.io.

METAR (pilot weather report)

Retrieved 2019/05/22 17:20 UTC (0 seconds ago):

LIEA 221720Z 26006KT 230V310 CAVOK 20/08 Q1017

TAF (pilot weather forecast)

Retrieved 2019/05/22 12:00 UTC (5 hours ago):

TAF LIEA 221100Z 2212/2312 23011KT 9999 SCT030 BECMG 2217/2219 VRB05KT BECMG 2308/2310 23012KT